createdAt,value
2023-03-16T00:00:54.973Z,98603.09
2023-03-16T00:03:57.591Z,98611.88
2023-03-16T00:07:00.209Z,98606.13
2023-03-16T00:10:04.875Z,98612.25
2023-03-16T00:13:07.492Z,98611.47
2023-03-16T00:16:10.140Z,98605.19
2023-03-16T00:19:12.781Z,98603.16
2023-03-16T00:22:16.771Z,98613.31
2023-03-16T00:25:20.781Z,98605.63
2023-03-16T00:28:23.880Z,98607.66
2023-03-16T00:31:26.644Z,98603.59
2023-03-16T00:34:30.090Z,98610.69
2023-03-16T00:37:33.263Z,98608.66
2023-03-16T00:40:37.323Z,98610.91
2023-03-16T00:43:41.671Z,98615.38
2023-03-16T00:46:44.298Z,98615.97
2023-03-16T00:49:46.968Z,98609.03
2023-03-16T00:52:49.800Z,98605.19
2023-03-16T00:55:54.057Z,98607.88
2023-03-16T00:58:57.813Z,98606.03
2023-03-16T01:02:00.557Z,98604.19
2023-03-16T01:05:05.630Z,98606.22
2023-03-16T01:08:08.222Z,98597.69
2023-03-16T01:11:16.250Z,98606.28
2023-03-16T01:14:18.958Z,98604.41
2023-03-16T01:17:22.416Z,98601.38
2023-03-16T01:20:26.500Z,98598.72
2023-03-16T01:23:31.430Z,98595.03
2023-03-16T01:26:35.672Z,98588.97
2023-03-16T01:29:40.030Z,98587.34
2023-03-16T01:32:43.381Z,98585.72
2023-03-16T01:35:53.447Z,98586.75
2023-03-16T01:38:56.159Z,98584.72
2023-03-16T01:42:00.109Z,98584.50
2023-03-16T01:45:05.454Z,98582.06
2023-03-16T01:48:08.052Z,98588.97
2023-03-16T01:51:16.845Z,98572.13
2023-03-16T01:54:27.597Z,98577.41
2023-03-16T01:57:36.796Z,98577.22
2023-03-16T02:00:41.736Z,98577.84
2023-03-16T02:03:45.279Z,98571.13
2023-03-16T02:06:48.488Z,98573.78
2023-03-16T02:09:55.158Z,98572.56
2023-03-16T02:13:00.176Z,98569.69
2023-03-16T02:16:03.974Z,98560.16
2023-03-16T02:19:10.732Z,98559.34
2023-03-16T02:22:14.084Z,98551.81
2023-03-16T02:25:20.040Z,98556.66
2023-03-16T02:28:32.582Z,98560.25
2023-03-16T02:31:36.938Z,98555.38
2023-03-16T02:34:40.821Z,98553.91
2023-03-16T02:37:43.667Z,98549.22
2023-03-16T02:40:56.040Z,98550.44
2023-03-16T02:44:04.866Z,98547.00
2023-03-16T02:47:16.727Z,98545.38
2023-03-16T02:50:20.221Z,98538.66
2023-03-16T02:53:23.765Z,98538.25
2023-03-16T02:56:26.707Z,98546.41
2023-03-16T02:59:30.098Z,98536.28
2023-03-16T03:02:34.453Z,98531.22
2023-03-16T03:05:38.394Z,98533.63
2023-03-16T03:08:41.368Z,98532.38
2023-03-16T03:11:44.343Z,98528.72
2023-03-16T03:14:47.750Z,98535.06
2023-03-16T03:17:52.740Z,98534.84
2023-03-16T03:20:55.689Z,98536.72
2023-03-16T03:23:58.628Z,98535.28
2023-03-16T03:27:05.795Z,98532.66
2023-03-16T03:30:10.244Z,98524.94
2023-03-16T03:33:14.683Z,98516.41
2023-03-16T03:36:18.052Z,98517.59
2023-03-16T03:39:20.933Z,98512.69
2023-03-16T03:42:24.446Z,98523.66
2023-03-16T03:45:27.503Z,98512.91
2023-03-16T03:48:31.835Z,98525.75
2023-03-16T03:51:34.939Z,98520.66
2023-03-16T03:54:37.777Z,98515.56
2023-03-16T03:57:41.011Z,98508.31
2023-03-16T04:00:43.778Z,98508.69
2023-03-16T04:03:47.770Z,98504.03
2023-03-16T04:06:51.123Z,98509.91
2023-03-16T04:09:53.809Z,98511.13
2023-03-16T04:12:58.013Z,98508.09
2023-03-16T04:16:03.037Z,98509.53
2023-03-16T04:19:07.032Z,98515.19
2023-03-16T04:22:09.707Z,98509.91
2023-03-16T04:25:13.546Z,98495.31
2023-03-16T04:28:17.756Z,98495.31
2023-03-16T04:31:20.437Z,98501.63
2023-03-16T04:34:26.275Z,98492.47
2023-03-16T04:37:28.920Z,98486.19
2023-03-16T04:40:31.532Z,98481.13
2023-03-16T04:43:35.199Z,98483.53
2023-03-16T04:46:37.914Z,98484.53
2023-03-16T04:49:42.538Z,98490.03
2023-03-16T04:52:45.249Z,98486.56
2023-03-16T04:55:48.030Z,98487.78
2023-03-16T04:58:51.985Z,98494.88
2023-03-16T05:01:54.647Z,98490.63
2023-03-16T05:04:58.804Z,98485.13
2023-03-16T05:08:01.704Z,98484.31
2023-03-16T05:11:04.759Z,98489.66
2023-03-16T05:14:07.493Z,98486.56
2023-03-16T05:17:10.328Z,98491.63
2023-03-16T05:20:16.459Z,98483.94
2023-03-16T05:23:19.281Z,98495.75
2023-03-16T05:26:21.941Z,98475.63
2023-03-16T05:29:26.797Z,98489.03
2023-03-16T05:32:29.876Z,98482.53
2023-03-16T05:35:33.898Z,98484.59
2023-03-16T05:38:37.058Z,98492.91
2023-03-16T05:41:40.101Z,98482.75
2023-03-16T05:44:44.848Z,98478.31
2023-03-16T05:47:47.569Z,98484.41
2023-03-16T05:50:51.817Z,98475.88
2023-03-16T05:53:56.573Z,98475.47
2023-03-16T05:56:59.219Z,98470.19
2023-03-16T06:00:11.210Z,98473.44
2023-03-16T06:03:14.021Z,98473.22
2023-03-16T06:06:18.457Z,98467.94
2023-03-16T06:09:21.128Z,98466.91
2023-03-16T06:12:23.723Z,98471.81
2023-03-16T06:15:26.674Z,98462.63
2023-03-16T06:18:29.309Z,98465.63
2023-03-16T06:21:33.250Z,98466.63
2023-03-16T06:24:35.900Z,98469.88
2023-03-16T06:27:39.948Z,98466.34
2023-03-16T06:30:42.998Z,98471.94
2023-03-16T06:33:45.660Z,98474.88
2023-03-16T06:36:49.736Z,98469.84
2023-03-16T06:39:52.335Z,98471.44
2023-03-16T06:42:55.182Z,98470.22
2023-03-16T06:45:58.792Z,98471.31
2023-03-16T06:49:01.911Z,98465.03
2023-03-16T06:52:06.090Z,98463.28
2023-03-16T06:55:09.878Z,98460.84
2023-03-16T06:58:12.773Z,98456.88
2023-03-16T07:01:15.545Z,98461.13
2023-03-16T07:04:18.305Z,98461.88
2023-03-16T07:07:22.373Z,98463.72
2023-03-16T07:10:25.490Z,98454.34
2023-03-16T07:13:28.266Z,98448.38
2023-03-16T07:16:30.950Z,98450.47
2023-03-16T07:19:33.680Z,98453.41
2023-03-16T07:22:37.984Z,98450.72
2023-03-16T07:25:40.604Z,98458.19
2023-03-16T07:28:43.207Z,98454.25
2023-03-16T07:31:45.860Z,98461.13
2023-03-16T07:34:48.502Z,98458.13
2023-03-16T07:37:52.554Z,98464.28
2023-03-16T07:40:55.211Z,98471.19
2023-03-16T07:43:58.315Z,98470.84
2023-03-16T07:47:01.572Z,98472.63
2023-03-16T07:50:05.778Z,98472.69
2023-03-16T07:53:10.166Z,98476.25
2023-03-16T07:56:12.835Z,98475.25
2023-03-16T07:59:15.485Z,98476.13
2023-03-16T08:02:21.574Z,98471.34
2023-03-16T08:05:26.571Z,98469.84
2023-03-16T08:08:31.498Z,98467.34
2023-03-16T08:11:37.515Z,98477.00
2023-03-16T08:14:41.445Z,98475.84
2023-03-16T08:17:44.762Z,98475.84
2023-03-16T08:20:48.423Z,98471.25
2023-03-16T08:23:52.918Z,98474.25
2023-03-16T08:26:56.189Z,98474.81
2023-03-16T08:30:04.593Z,98460.44
2023-03-16T08:33:07.441Z,98467.88
2023-03-16T08:36:13.541Z,98466.34
2023-03-16T08:39:17.755Z,98455.81
2023-03-16T08:42:21.116Z,98446.13
2023-03-16T08:45:24.321Z,98443.78
2023-03-16T08:48:28.815Z,98439.84
2023-03-16T08:51:32.618Z,98444.03
2023-03-16T08:54:36.789Z,98429.88
2023-03-16T08:57:39.836Z,98430.59
2023-03-16T09:00:44.873Z,98443.59
2023-03-16T09:03:48.952Z,98433.66
2023-03-16T09:07:07.876Z,98443.59
2023-03-16T09:10:16.294Z,98446.72
2023-03-16T09:13:19.451Z,98433.19
2023-03-16T09:16:25.926Z,98422.09
2023-03-16T09:19:34.846Z,98427.66
2023-03-16T09:22:43.710Z,98423.75
2023-03-16T09:25:48.247Z,98403.41
2023-03-16T09:28:51.090Z,98405.47
2023-03-16T09:31:53.908Z,98411.78
2023-03-16T09:34:56.676Z,98412.63
2023-03-16T09:38:07.137Z,98414.28
2023-03-16T09:41:22.460Z,98406.63
2023-03-16T09:44:35.113Z,98399.22
2023-03-16T09:47:39.687Z,98388.63
2023-03-16T09:50:48.702Z,98381.13
2023-03-16T09:53:59.131Z,98381.91
2023-03-16T09:57:05.235Z,98381.84
2023-03-16T10:00:17.364Z,98378.56
2023-03-16T10:03:36.460Z,98374.25
2023-03-16T10:06:48.262Z,98365.06
2023-03-16T10:09:57.974Z,98375.63
2023-03-16T10:13:03.779Z,98370.00
2023-03-16T10:16:12.503Z,98380.53
2023-03-16T10:19:20.745Z,98379.19
2023-03-16T10:22:26.408Z,98383.41
2023-03-16T10:25:36.711Z,98377.47
2023-03-16T10:28:43.057Z,98369.44
2023-03-16T10:31:46.014Z,98360.28
2023-03-16T10:34:56.149Z,98354.88
2023-03-16T10:37:59.016Z,98358.03
2023-03-16T10:41:02.165Z,98356.84
2023-03-16T10:44:12.215Z,98358.53
2023-03-16T10:47:20.063Z,98352.28
2023-03-16T10:50:27.867Z,98346.00
2023-03-16T10:53:35.863Z,98335.81
2023-03-16T10:56:40.365Z,98332.00
2023-03-16T10:59:50.015Z,98332.72
2023-03-16T11:02:54.359Z,98328.59
2023-03-16T11:06:02.306Z,98320.81
2023-03-16T11:09:08.638Z,98325.34
2023-03-16T11:12:17.310Z,98330.59
2023-03-16T11:15:26.051Z,98333.00
2023-03-16T11:18:33.084Z,98327.19
2023-03-16T11:21:42.227Z,98317.78
2023-03-16T11:24:50.375Z,98312.59
2023-03-16T11:28:11.970Z,98314.34
2023-03-16T11:31:24.424Z,98316.75
2023-03-16T11:34:29.719Z,98306.50
2023-03-16T11:37:46.948Z,98305.22
2023-03-16T11:40:58.380Z,98300.41
2023-03-16T11:44:09.927Z,98300.03
2023-03-16T11:47:32.872Z,98294.28
2023-03-16T11:50:44.305Z,98288.22
2023-03-16T11:53:52.601Z,98283.75
2023-03-16T11:56:59.063Z,98271.53
2023-03-16T12:00:14.907Z,98257.06
2023-03-16T12:03:54.095Z,98260.00
2023-03-16T12:07:09.386Z,98258.78
2023-03-16T12:10:24.857Z,98246.69
2023-03-16T12:13:40.077Z,98249.78
2023-03-16T12:16:50.136Z,98246.38
2023-03-16T12:20:00.781Z,98243.81
2023-03-16T12:23:09.323Z,98258.56
2023-03-16T12:26:14.776Z,98265.09
2023-03-16T12:29:28.506Z,98254.88
2023-03-16T12:32:43.915Z,98245.19
2023-03-16T12:35:56.770Z,98247.09
2023-03-16T12:39:06.094Z,98239.06
2023-03-16T12:42:27.365Z,98233.06
2023-03-16T12:45:40.684Z,98231.66
2023-03-16T12:48:48.036Z,98233.66
2023-03-16T12:52:00.704Z,98224.06
2023-03-16T12:55:13.251Z,98220.56
2023-03-16T12:58:19.103Z,98210.06
2023-03-16T13:01:28.944Z,98211.94
2023-03-16T13:04:35.041Z,98206.38
2023-03-16T13:07:48.053Z,98197.28
2023-03-16T13:11:06.419Z,98205.00
2023-03-16T13:14:12.748Z,98203.00
2023-03-16T13:17:27.862Z,98209.19
2023-03-16T13:20:33.782Z,98207.78
2023-03-16T13:23:54.986Z,98195.78
2023-03-16T13:27:03.234Z,98191.81
2023-03-16T13:30:19.457Z,98192.53
2023-03-16T13:33:26.285Z,98186.38
2023-03-16T13:36:31.025Z,98187.66
2023-03-16T13:39:35.431Z,98190.31
2023-03-16T13:42:38.634Z,98193.72
2023-03-16T13:45:41.693Z,98180.88
2023-03-16T13:48:45.319Z,98186.13
2023-03-16T13:51:48.567Z,98176.16
2023-03-16T13:54:53.536Z,98167.25
2023-03-16T13:57:56.826Z,98171.97
2023-03-16T14:01:02.087Z,98172.16
2023-03-16T14:04:13.705Z,98161.59
2023-03-16T14:07:19.338Z,98155.97
2023-03-16T14:10:26.029Z,98156.34
2023-03-16T14:13:36.315Z,98151.50
2023-03-16T14:16:39.420Z,98131.19
2023-03-16T14:19:46.869Z,98129.25
2023-03-16T14:22:53.045Z,98133.31
2023-03-16T14:25:57.654Z,98119.19
2023-03-16T14:29:06.405Z,98117.00
2023-03-16T14:32:23.395Z,98112.59
2023-03-16T14:35:29.266Z,98114.19
2023-03-16T14:38:36.182Z,98111.28
2023-03-16T14:41:40.981Z,98106.41
2023-03-16T14:44:43.798Z,98105.22
2023-03-16T14:47:48.423Z,98098.91
2023-03-16T14:50:55.874Z,98097.72
2023-03-16T14:53:58.808Z,98095.38
2023-03-16T14:57:05.670Z,98107.75
2023-03-16T15:00:12.209Z,98105.25
2023-03-16T15:03:18.512Z,98101.97
2023-03-16T15:06:21.857Z,98099.44
2023-03-16T15:09:35.446Z,98104.72
2023-03-16T15:12:40.968Z,98097.91
2023-03-16T15:15:44.298Z,98103.75
2023-03-16T15:18:47.737Z,98100.63
2023-03-16T15:21:50.722Z,98096.84
2023-03-16T15:24:53.578Z,98091.66
2023-03-16T15:27:57.827Z,98080.59
2023-03-16T15:31:03.202Z,98081.28
2023-03-16T15:34:06.413Z,98082.00
2023-03-16T15:37:13.783Z,98084.50
2023-03-16T15:40:20.567Z,98082.47
2023-03-16T15:43:27.310Z,98091.13
2023-03-16T15:46:30.156Z,98094.19
2023-03-16T15:49:46.615Z,98089.75
2023-03-16T15:52:53.947Z,98093.03
2023-03-16T15:56:01.169Z,98094.38
2023-03-16T15:59:09.693Z,98093.66
2023-03-16T16:02:27.581Z,98087.69
2023-03-16T16:05:32.803Z,98080.47
2023-03-16T16:08:36.038Z,98091.53
2023-03-16T16:11:39.823Z,98094.28
2023-03-16T16:14:44.095Z,98086.47
2023-03-16T16:18:07.466Z,98080.59
2023-03-16T16:21:17.835Z,98089.34
2023-03-16T16:24:20.633Z,98082.56
2023-03-16T16:27:23.993Z,98083.44
2023-03-16T16:30:31.001Z,98079.72
2023-03-16T16:33:36.161Z,98081.00
2023-03-16T16:36:38.930Z,98082.94
2023-03-16T16:39:41.721Z,98082.66
2023-03-16T16:42:44.588Z,98073.94
2023-03-16T16:45:49.998Z,98069.72
2023-03-16T16:48:55.555Z,98075.41
2023-03-16T16:51:59.048Z,98067.03
2023-03-16T16:55:01.946Z,98061.72
2023-03-16T16:58:09.826Z,98062.44
2023-03-16T17:01:24.285Z,98061.00
2023-03-16T17:04:29.465Z,98056.19
2023-03-16T17:07:32.588Z,98065.38
2023-03-16T17:10:35.525Z,98068.16
2023-03-16T17:13:40.089Z,98068.44
2023-03-16T17:16:44.655Z,98064.47
2023-03-16T17:19:48.604Z,98059.41
2023-03-16T17:22:51.420Z,98056.53
2023-03-16T17:25:55.354Z,98067.31
2023-03-16T17:29:02.400Z,98068.94
2023-03-16T17:32:19.373Z,98057.44
2023-03-16T17:35:22.659Z,98058.53
2023-03-16T17:38:26.518Z,98061.78
2023-03-16T17:41:32.986Z,98062.88
2023-03-16T17:44:41.141Z,98060.19
2023-03-16T17:47:46.221Z,98059.19
2023-03-16T17:50:49.568Z,98064.84
2023-03-16T17:53:52.996Z,98067.59
2023-03-16T17:56:55.751Z,98060.88
2023-03-16T17:59:59.355Z,98066.25
2023-03-16T18:03:05.740Z,98058.19
2023-03-16T18:06:13.202Z,98057.66
2023-03-16T18:09:16.172Z,98055.50
2023-03-16T18:12:19.004Z,98058.44
2023-03-16T18:15:24.929Z,98064.84
2023-03-16T18:18:31.974Z,98063.81
2023-03-16T18:21:36.335Z,98059.00
2023-03-16T18:24:39.181Z,98061.19
2023-03-16T18:27:42.205Z,98055.03
2023-03-16T18:30:47.980Z,98062.84
2023-03-16T18:33:55.200Z,98064.44
2023-03-16T18:37:00.724Z,98055.59
2023-03-16T18:40:03.748Z,98059.63
2023-03-16T18:43:07.298Z,98055.88
2023-03-16T18:46:28.088Z,98059.09
2023-03-16T18:49:34.982Z,98048.63
2023-03-16T18:52:39.215Z,98045.16
2023-03-16T18:55:44.985Z,98051.34
2023-03-16T18:58:48.199Z,98047.38
2023-03-16T19:01:51.466Z,98053.81
2023-03-16T19:04:57.101Z,98052.22
2023-03-16T19:07:59.838Z,98034.81
2023-03-16T19:11:04.057Z,98037.78
2023-03-16T19:14:15.637Z,98042.59
2023-03-16T19:17:18.448Z,98033.75
2023-03-16T19:20:25.268Z,98043.13
2023-03-16T19:23:32.615Z,98037.28
2023-03-16T19:26:37.273Z,98031.94
2023-03-16T19:29:40.005Z,98035.72
2023-03-16T19:32:43.292Z,98041.34
2023-03-16T19:35:51.760Z,98036.78
2023-03-16T19:38:54.893Z,98040.84
2023-03-16T19:41:59.697Z,98041.09
2023-03-16T19:45:02.539Z,98041.88
2023-03-16T19:48:12.721Z,98037.09
2023-03-16T19:51:18.517Z,98037.09
2023-03-16T19:54:23.407Z,98031.22
2023-03-16T19:57:26.559Z,98040.63
2023-03-16T20:00:31.002Z,98026.16
2023-03-16T20:03:37.297Z,98034.25
2023-03-16T20:06:41.642Z,98028.88
2023-03-16T20:09:44.896Z,98029.44
2023-03-16T20:12:50.927Z,98024.09
2023-03-16T20:15:54.301Z,98020.34
2023-03-16T20:19:00.307Z,98017.91
2023-03-16T20:22:04.379Z,98020.34
2023-03-16T20:25:07.678Z,98016.59
2023-03-16T20:28:17.899Z,98020.34
2023-03-16T20:31:23.274Z,98025.69
2023-03-16T20:34:28.518Z,98025.69
2023-03-16T20:37:32.750Z,98026.75
2023-03-16T20:40:35.415Z,98030.50
2023-03-16T20:43:38.651Z,98027.81
2023-03-16T20:46:41.716Z,98024.59
2023-03-16T20:49:45.119Z,98031.56
2023-03-16T20:52:49.603Z,98017.13
2023-03-16T20:55:54.547Z,98013.09
2023-03-16T20:58:59.061Z,98010.41
2023-03-16T21:02:03.159Z,98021.13
2023-03-16T21:05:09.721Z,98015.75
2023-03-16T21:08:14.127Z,98024.06
2023-03-16T21:11:22.518Z,98017.63
2023-03-16T21:14:26.266Z,98017.09
2023-03-16T21:17:31.938Z,98013.88
2023-03-16T21:20:36.603Z,98013.88
2023-03-16T21:23:40.865Z,98010.13
2023-03-16T21:26:44.890Z,98006.69
2023-03-16T21:29:48.282Z,98014.44
2023-03-16T21:32:52.234Z,98002.38
2023-03-16T21:35:55.037Z,98001.06
2023-03-16T21:38:59.136Z,98002.13
2023-03-16T21:42:02.280Z,98002.38
2023-03-16T21:45:05.664Z,97995.72
2023-03-16T21:48:14.243Z,98001.03
2023-03-16T21:51:19.135Z,97999.44
2023-03-16T21:54:23.160Z,98000.53
2023-03-16T21:57:25.930Z,97987.41
2023-03-16T22:00:31.989Z,97989.53
2023-03-16T22:03:50.157Z,97997.00
2023-03-16T22:06:54.028Z,97984.72
2023-03-16T22:09:58.090Z,97992.47
2023-03-16T22:13:02.170Z,97987.41
2023-03-16T22:16:14.812Z,97985.78
2023-03-16T22:19:18.161Z,97989.00
2023-03-16T22:22:21.348Z,97980.97
2023-03-16T22:25:27.664Z,97979.91
2023-03-16T22:28:31.562Z,97975.38
2023-03-16T22:31:35.977Z,97976.41
2023-03-16T22:34:43.768Z,97975.38
2023-03-16T22:37:46.490Z,97973.78
2023-03-16T22:40:51.101Z,97964.41
2023-03-16T22:43:55.022Z,97961.75
2023-03-16T22:46:57.768Z,97958.28
2023-03-16T22:50:00.757Z,97952.41
2023-03-16T22:53:06.809Z,97948.66
2023-03-16T22:56:11.350Z,97955.59
2023-03-16T22:59:17.215Z,97957.19
2023-03-16T23:02:25.296Z,97953.44
2023-03-16T23:05:29.705Z,97950.25
2023-03-16T23:08:32.621Z,97935.81
2023-03-16T23:11:39.113Z,97941.16
2023-03-16T23:14:43.337Z,97947.81
2023-03-16T23:17:46.289Z,97936.88
2023-03-16T23:20:49.643Z,97935.28
2023-03-16T23:24:03.577Z,97935.00
2023-03-16T23:27:17.257Z,97938.72
2023-03-16T23:30:23.540Z,97934.69
2023-03-16T23:33:27.047Z,97932.56
2023-03-16T23:36:29.991Z,97932.81
2023-03-16T23:39:32.840Z,97929.59
2023-03-16T23:42:37.251Z,97933.06
2023-03-16T23:45:42.810Z,97928.75
2023-03-16T23:48:47.345Z,97925.56
2023-03-16T23:51:50.308Z,97932.75
2023-03-16T23:54:52.971Z,97937.59
2023-03-16T23:57:57.123Z,97941.06
